Time;durP1;ratioP1;P1;durP2;ratioP2;P2;SDS_P1;SDS_P2;PMS_P1;PMS_P2;Temp;Humidity;BMP_temperature;BMP_pressure;BME280_temperature;BME280_humidity;BME280_pressure;Samples;Min_cycle;Max_cycle;Signal;HPM_P1;HPM_P2
2022/05/25 00:00:19;;;;;;;1.90;1.10;;;15.40;69.00;;;;;;5005193;28;20464;-44
2022/05/25 00:02:46;;;;;;;2.07;1.30;;;15.40;68.90;;;;;;5002154;28;21665;-44
2022/05/25 00:05:14;;;;;;;2.20;1.00;;;15.30;68.90;;;;;;5008208;28;20472;-44
2022/05/25 00:07:41;;;;;;;0.90;0.80;;;15.30;68.60;;;;;;4994391;28;20503;-44
2022/05/25 00:10:09;;;;;;;2.00;1.00;;;15.30;68.60;;;;;;5006352;28;20464;-44
2022/05/25 00:12:35;;;;;;;1.93;1.13;;;15.30;68.30;;;;;;4994564;28;20562;-44
2022/05/25 00:15:06;;;;;;;1.30;1.17;;;15.30;68.30;;;;;;5004810;28;20560;-44
2022/05/25 00:17:32;;;;;;;1.47;1.17;;;15.20;68.50;;;;;;5006226;28;20468;-44
2022/05/25 00:19:59;;;;;;;1.40;1.23;;;15.20;68.80;;;;;;5002453;28;20522;-44
2022/05/25 00:22:29;;;;;;;1.67;1.30;;;15.20;69.10;;;;;;4990957;28;20826;-44
2022/05/25 00:24:58;;;;;;;1.23;1.13;;;15.20;69.10;;;;;;4987558;28;20492;-44
2022/05/25 00:27:25;;;;;;;1.37;0.90;;;15.20;69.10;;;;;;5005558;28;20519;-44
2022/05/25 00:29:52;;;;;;;1.20;1.00;;;15.10;69.30;;;;;;5007724;28;20503;-44
2022/05/25 00:32:19;;;;;;;1.80;1.30;;;15.10;69.40;;;;;;5003885;28;20975;-44
2022/05/25 00:34:46;;;;;;;1.63;1.37;;;15.10;69.50;;;;;;5004811;28;20881;-44
2022/05/25 00:37:15;;;;;;;1.63;1.03;;;15.10;69.70;;;;;;5008716;28;20524;-44
2022/05/25 00:39:42;;;;;;;2.47;0.87;;;15.10;69.80;;;;;;5005795;28;20983;-44
2022/05/25 00:42:10;;;;;;;1.73;1.00;;;15.10;70.00;;;;;;4989662;28;20547;-44
2022/05/25 00:44:36;;;;;;;1.37;1.27;;;15.10;69.90;;;;;;4974862;28;20463;-44
2022/05/25 00:47:03;;;;;;;1.87;1.13;;;15.10;69.20;;;;;;5010486;28;20464;-44
2022/05/25 00:49:33;;;;;;;3.50;1.13;;;15.00;69.00;;;;;;5008782;28;20460;-44
2022/05/25 00:52:07;;;;;;;1.53;1.10;;;15.10;69.80;;;;;;5009836;28;21161;-44
2022/05/25 00:54:40;;;;;;;2.87;1.43;;;15.10;70.10;;;;;;5011534;28;20909;-44
2022/05/25 00:57:12;;;;;;;1.20;1.10;;;15.10;70.00;;;;;;5010322;28;20603;-43
2022/05/25 01:00:06;;;;;;;1.37;1.20;;;15.00;69.80;;;;;;4994952;28;20478;-44
2022/05/25 01:02:45;;;;;;;1.67;1.57;;;15.00;69.80;;;;;;5006780;28;20574;-44
2022/05/25 01:05:15;;;;;;;1.10;1.00;;;15.00;69.70;;;;;;4992155;28;20555;-44
2022/05/25 01:08:07;;;;;;;2.40;1.20;;;15.00;69.90;;;;;;5011435;28;20481;-43
2022/05/25 01:11:10;;;;;;;2.30;1.13;;;14.90;69.90;;;;;;5010929;28;20558;-44
2022/05/25 01:14:01;;;;;;;1.50;1.23;;;14.90;69.20;;;;;;5012261;28;20447;-44
2022/05/25 01:17:15;;;;;;;1.17;0.80;;;14.90;69.20;;;;;;5008277;28;20622;-44
2022/05/25 01:19:42;;;;;;;1.40;1.20;;;14.80;69.70;;;;;;4982643;28;20827;-44
2022/05/25 01:22:31;;;;;;;1.80;1.50;;;14.80;70.10;;;;;;5007951;28;20465;-43
2022/05/25 01:25:35;;;;;;;5.03;1.30;;;14.80;69.90;;;;;;5011559;28;20498;-43
2022/05/25 01:28:40;;;;;;;2.87;1.50;;;14.70;70.40;;;;;;5011031;28;20490;-43
2022/05/25 01:31:11;;;;;;;2.37;1.20;;;14.70;70.40;;;;;;5006241;28;21051;-44
2022/05/25 01:33:42;;;;;;;2.00;1.33;;;14.60;70.50;;;;;;5007297;28;20468;-44
2022/05/25 01:36:37;;;;;;;2.20;1.63;;;14.60;70.80;;;;;;5007493;28;20496;-44
2022/05/25 01:39:09;;;;;;;2.43;1.40;;;14.60;71.20;;;;;;5011106;28;20464;-44
2022/05/25 01:41:45;;;;;;;2.70;1.30;;;14.60;70.90;;;;;;4990457;28;20482;-44
2022/05/25 01:44:24;;;;;;;1.70;1.40;;;14.60;71.10;;;;;;5010063;28;20470;-44
2022/05/25 01:46:57;;;;;;;4.30;1.40;;;14.60;71.20;;;;;;5005930;28;20980;-44
2022/05/25 01:49:32;;;;;;;1.47;1.37;;;14.60;70.90;;;;;;4991808;28;20471;-44
2022/05/25 01:52:07;;;;;;;1.50;1.40;;;14.50;70.90;;;;;;4990517;28;20483;-44
2022/05/25 01:54:41;;;;;;;1.60;1.40;;;14.40;71.40;;;;;;4991855;28;20464;-44
2022/05/25 01:57:11;;;;;;;3.10;1.60;;;14.40;71.80;;;;;;4993515;28;21299;-44
2022/05/25 01:59:38;;;;;;;1.83;1.63;;;14.30;72.00;;;;;;5009104;28;20490;-44
2022/05/25 02:04:56;;;;;;;2.20;1.47;;;14.30;72.30;;;;;;5004304;28;20467;-44
2022/05/25 02:07:52;;;;;;;2.13;1.93;;;14.20;72.40;;;;;;5010436;28;20571;-44
2022/05/25 02:10:40;;;;;;;1.67;1.57;;;14.20;72.30;;;;;;5009009;28;20463;-44
2022/05/25 02:13:22;;;;;;;2.47;1.53;;;14.20;72.30;;;;;;5009234;28;20466;-44
2022/05/25 02:16:03;;;;;;;1.77;1.53;;;14.20;72.50;;;;;;5006744;28;20458;-44
2022/05/25 02:18:39;;;;;;;2.00;1.53;;;14.20;72.70;;;;;;5004798;28;20974;-44
2022/05/25 02:21:31;;;;;;;1.50;1.07;;;14.20;72.70;;;;;;5004495;28;20468;-44
2022/05/25 02:24:33;;;;;;;1.30;1.20;;;14.10;72.80;;;;;;4993930;28;20466;-44
2022/05/25 02:27:09;;;;;;;1.47;1.30;;;14.10;72.10;;;;;;5003736;28;20459;-43
2022/05/25 02:29:39;;;;;;;2.17;1.70;;;14.00;72.20;;;;;;5011166;28;20549;-47
2022/05/25 02:32:14;;;;;;;2.50;1.30;;;14.00;72.00;;;;;;5005482;28;21012;-47
2022/05/25 02:34:45;;;;;;;1.63;1.23;;;14.00;72.10;;;;;;5007262;28;20527;-47
2022/05/25 02:37:12;;;;;;;2.70;1.30;;;13.90;71.90;;;;;;5008430;28;20492;-47
2022/05/25 02:39:39;;;;;;;2.50;1.70;;;13.90;72.20;;;;;;5009504;28;20455;-47
2022/05/25 02:42:13;;;;;;;1.60;1.30;;;13.80;72.50;;;;;;4993719;28;20975;-46
2022/05/25 02:44:41;;;;;;;1.83;1.50;;;13.80;72.80;;;;;;5006263;28;20451;-47
2022/05/25 02:47:08;;;;;;;1.27;1.13;;;13.80;72.80;;;;;;5012408;28;20473;-47
2022/05/25 02:49:36;;;;;;;1.20;1.10;;;13.80;72.40;;;;;;4993261;28;21002;-47
2022/05/25 02:52:04;;;;;;;1.67;1.47;;;13.80;71.90;;;;;;5008292;28;20542;-42
2022/05/25 02:54:30;;;;;;;2.37;1.60;;;13.70;71.90;;;;;;4996519;28;20468;-42
2022/05/25 02:56:57;;;;;;;1.50;1.20;;;13.60;72.40;;;;;;5008801;28;20476;-42
2022/05/25 02:59:24;;;;;;;1.27;1.27;;;13.60;73.00;;;;;;5003396;28;20860;-42
2022/05/25 03:01:51;;;;;;;1.43;1.33;;;13.60;73.00;;;;;;4987641;28;21035;-42
2022/05/25 03:04:18;;;;;;;2.10;1.40;;;13.60;73.20;;;;;;4989348;28;20460;-42
2022/05/25 03:06:45;;;;;;;3.37;1.63;;;13.50;73.40;;;;;;5005240;28;20479;-42
2022/05/25 03:09:13;;;;;;;2.00;1.33;;;13.50;73.50;;;;;;4986010;28;20542;-42
2022/05/25 03:11:44;;;;;;;4.50;1.53;;;13.50;73.40;;;;;;5003674;28;20488;-42
2022/05/25 03:14:11;;;;;;;2.00;1.40;;;13.50;73.40;;;;;;5005620;28;20469;-42
2022/05/25 03:16:37;;;;;;;2.77;1.90;;;13.50;73.50;;;;;;5003781;28;20494;-42
2022/05/25 03:19:04;;;;;;;3.00;1.67;;;13.40;73.80;;;;;;5005880;28;20464;-42
2022/05/25 03:21:31;;;;;;;2.40;1.53;;;13.50;73.80;;;;;;5005672;28;20472;-42
2022/05/25 03:23:57;;;;;;;1.53;1.43;;;13.50;73.80;;;;;;5003797;28;20471;-42
2022/05/25 03:26:24;;;;;;;1.87;1.77;;;13.40;73.70;;;;;;4990005;28;20476;-42
2022/05/25 03:28:51;;;;;;;4.03;2.00;;;13.40;73.70;;;;;;5006413;28;20558;-42
2022/05/25 03:31:18;;;;;;;2.50;2.33;;;13.40;73.60;;;;;;4988104;28;21563;-42
2022/05/25 03:33:45;;;;;;;2.90;1.40;;;13.30;73.80;;;;;;5006226;28;20976;-42
2022/05/25 03:36:12;;;;;;;2.00;1.53;;;13.30;74.10;;;;;;5004621;28;20833;-42
2022/05/25 03:38:39;;;;;;;1.70;1.60;;;13.40;74.00;;;;;;5004921;28;20922;-42
2022/05/25 03:41:06;;;;;;;2.10;1.40;;;13.40;73.80;;;;;;4990868;28;20502;-42
2022/05/25 03:43:35;;;;;;;1.80;1.03;;;13.30;73.70;;;;;;5005650;28;20468;-42
2022/05/25 03:46:02;;;;;;;1.90;1.53;;;13.30;73.10;;;;;;5000899;28;20472;-42
2022/05/25 03:48:29;;;;;;;3.00;1.83;;;13.30;72.90;;;;;;4987550;28;20521;-42
2022/05/25 03:50:56;;;;;;;3.77;1.80;;;13.30;72.90;;;;;;5008903;28;20451;-42
2022/05/25 03:53:22;;;;;;;1.97;1.73;;;13.20;73.10;;;;;;4989448;28;20464;-42
2022/05/25 03:55:49;;;;;;;1.30;1.20;;;13.20;73.40;;;;;;4985870;28;20975;-42
2022/05/25 03:58:16;;;;;;;1.87;1.50;;;13.20;73.90;;;;;;5002087;28;20500;-42
2022/05/25 04:00:43;;;;;;;2.40;1.60;;;13.10;73.90;;;;;;5001864;28;21014;-42
2022/05/25 04:03:14;;;;;;;1.70;1.50;;;13.10;74.20;;;;;;5004200;28;20456;-42
2022/05/25 04:05:42;;;;;;;1.63;1.50;;;13.10;74.50;;;;;;5008103;28;20463;-42
2022/05/25 04:08:10;;;;;;;1.67;1.57;;;13.10;74.70;;;;;;5002107;28;20480;-42
2022/05/25 04:10:37;;;;;;;1.40;1.30;;;13.20;74.70;;;;;;5006853;28;20480;-42
2022/05/25 04:13:03;;;;;;;2.03;1.40;;;13.10;74.90;;;;;;5006833;28;20471;-42
2022/05/25 04:15:33;;;;;;;1.97;1.40;;;13.20;75.30;;;;;;5003100;28;20984;-42
2022/05/25 04:18:00;;;;;;;1.77;1.67;;;13.20;75.30;;;;;;5004766;28;20506;-42
2022/05/25 04:20:29;;;;;;;1.60;1.50;;;13.20;75.10;;;;;;4985816;28;20460;-41
2022/05/25 04:22:56;;;;;;;2.23;1.50;;;13.20;75.20;;;;;;5000601;28;20459;-41
2022/05/25 04:25:24;;;;;;;1.90;1.70;;;13.20;75.30;;;;;;5004154;28;20464;-42
2022/05/25 04:27:53;;;;;;;3.10;1.60;;;13.30;75.30;;;;;;4989782;28;20487;-41
2022/05/25 04:30:26;;;;;;;1.97;1.77;;;13.30;75.50;;;;;;4985949;28;20462;-41
2022/05/25 04:32:53;;;;;;;1.63;1.53;;;13.30;75.50;;;;;;5003073;28;20484;-41
2022/05/25 04:35:21;;;;;;;1.80;1.70;;;13.40;75.50;;;;;;5006072;28;20468;-41
2022/05/25 04:37:57;;;;;;;2.60;1.87;;;13.40;75.40;;;;;;4987227;28;20522;-41
2022/05/25 04:40:32;;;;;;;3.70;1.57;;;13.40;75.40;;;;;;5002260;28;20915;-42
2022/05/25 04:43:03;;;;;;;1.60;1.50;;;13.50;75.40;;;;;;5005097;28;20493;-42
2022/05/25 04:45:31;;;;;;;1.40;1.30;;;13.50;75.40;;;;;;4984575;28;20460;-42
2022/05/25 04:48:01;;;;;;;2.30;1.80;;;13.50;75.40;;;;;;5007933;28;20468;-42
2022/05/25 04:50:31;;;;;;;2.90;2.03;;;13.60;75.60;;;;;;5005748;28;20556;-42
2022/05/25 04:52:59;;;;;;;5.20;2.03;;;13.60;75.40;;;;;;5006228;28;20997;-42
2022/05/25 04:58:24;;;;;;;2.47;2.20;;;13.70;75.20;;;;;;5003995;28;20499;-41
2022/05/25 05:00:51;;;;;;;1.83;1.73;;;13.80;75.00;;;;;;5002997;28;20459;-42
2022/05/25 05:03:20;;;;;;;1.70;1.60;;;13.80;74.90;;;;;;5004903;28;20765;-42
2022/05/25 05:05:47;;;;;;;4.87;2.37;;;13.90;74.80;;;;;;5005168;28;21037;-42
2022/05/25 05:08:15;;;;;;;2.80;1.87;;;13.90;74.80;;;;;;4999103;28;20619;-42
2022/05/25 05:10:42;;;;;;;2.03;1.47;;;13.90;75.10;;;;;;5005016;28;20464;-42
2022/05/25 05:13:09;;;;;;;1.90;1.60;;;14.00;75.20;;;;;;5002115;28;20919;-42
2022/05/25 05:15:42;;;;;;;2.27;1.83;;;14.00;75.30;;;;;;4985245;28;20460;-42
2022/05/25 05:18:09;;;;;;;3.63;1.43;;;14.10;74.90;;;;;;5002451;28;20503;-42
2022/05/25 05:20:37;;;;;;;2.43;1.80;;;14.10;74.90;;;;;;5003826;28;20961;-42
2022/05/25 05:23:09;;;;;;;3.87;2.17;;;14.20;75.10;;;;;;5008339;28;20444;-42
2022/05/25 05:25:37;;;;;;;1.90;1.80;;;14.20;74.90;;;;;;5005758;28;20478;-42
2022/05/25 05:28:10;;;;;;;1.83;1.63;;;14.30;74.60;;;;;;5008833;28;20488;-42
2022/05/25 05:30:47;;;;;;;3.13;1.53;;;14.30;74.50;;;;;;4984958;28;20470;-42
2022/05/25 05:33:19;;;;;;;2.40;1.70;;;14.40;74.30;;;;;;5002833;28;20502;-47
2022/05/25 05:35:50;;;;;;;2.17;1.60;;;14.50;74.40;;;;;;5008317;28;20467;-47
2022/05/25 05:38:19;;;;;;;2.00;1.37;;;14.50;74.20;;;;;;5005054;28;20868;-47
2022/05/25 05:40:46;;;;;;;1.77;1.67;;;14.60;73.40;;;;;;5009197;28;20835;-47
2022/05/25 05:43:13;;;;;;;2.47;1.70;;;14.60;73.50;;;;;;4992797;28;20461;-47
2022/05/25 05:45:43;;;;;;;4.10;1.40;;;14.70;73.70;;;;;;5011204;28;20455;-47
2022/05/25 05:48:19;;;;;;;1.93;1.63;;;14.70;73.40;;;;;;5012421;28;20459;-47
2022/05/25 05:50:48;;;;;;;2.30;1.33;;;14.80;72.10;;;;;;5007903;28;20467;-47
2022/05/25 05:53:16;;;;;;;2.23;2.03;;;14.80;72.60;;;;;;5013449;28;20535;-47
2022/05/25 05:55:45;;;;;;;3.03;1.47;;;14.80;72.80;;;;;;5009582;28;20465;-47
2022/05/25 05:58:12;;;;;;;2.10;1.57;;;14.90;73.00;;;;;;4991634;28;20488;-47
2022/05/25 06:00:39;;;;;;;2.43;2.23;;;14.90;72.60;;;;;;4993702;28;20551;-47
2022/05/25 06:03:06;;;;;;;3.93;1.60;;;15.00;72.40;;;;;;5004552;28;20460;-47
2022/05/25 06:05:33;;;;;;;1.50;1.40;;;15.00;72.60;;;;;;5004367;28;20468;-45
2022/05/25 06:08:13;;;;;;;4.30;1.77;;;15.10;71.50;;;;;;5007575;28;20980;-44
2022/05/25 06:10:41;;;;;;;3.40;1.70;;;15.20;71.30;;;;;;4989677;28;20562;-44
2022/05/25 06:13:09;;;;;;;1.73;1.30;;;15.20;71.30;;;;;;5005653;28;20490;-44
2022/05/25 06:21:09;;;;;;;3.50;1.53;;;15.40;70.60;;;;;;5008835;28;20820;-45
2022/05/25 06:23:36;;;;;;;2.93;1.77;;;15.40;70.40;;;;;;5010093;28;20517;-45
2022/05/25 06:26:03;;;;;;;1.40;1.17;;;15.50;70.40;;;;;;5005182;28;20534;-45
2022/05/25 06:28:33;;;;;;;3.53;1.50;;;15.60;69.40;;;;;;4990782;28;20464;-45
2022/05/25 06:31:00;;;;;;;2.00;1.57;;;15.60;68.90;;;;;;5008965;28;20484;-45
2022/05/25 06:33:27;;;;;;;1.50;1.30;;;15.70;69.00;;;;;;5007860;28;20460;-45
2022/05/25 06:36:24;;;;;;;1.47;1.17;;;15.80;68.70;;;;;;4989877;28;20555;-45
2022/05/25 06:38:52;;;;;;;1.83;1.43;;;15.80;68.60;;;;;;5007367;28;20506;-44
2022/05/25 06:41:19;;;;;;;2.93;1.53;;;15.90;68.10;;;;;;5005018;28;20465;-45
2022/05/25 06:43:46;;;;;;;1.37;1.07;;;15.90;68.30;;;;;;5007727;28;20483;-45
2022/05/25 06:46:16;;;;;;;1.73;1.30;;;16.00;68.20;;;;;;5008155;28;20975;-45
2022/05/25 06:48:48;;;;;;;1.20;1.10;;;16.10;68.60;;;;;;4999372;28;22128;-45
2022/05/25 06:51:21;;;;;;;3.73;1.03;;;16.20;67.80;;;;;;5008625;28;20968;-45
2022/05/25 06:53:49;;;;;;;1.67;1.03;;;16.30;68.10;;;;;;5010067;28;20996;-45
2022/05/25 06:56:22;;;;;;;1.70;0.90;;;16.40;67.90;;;;;;5013179;28;20463;-42
2022/05/25 06:58:49;;;;;;;1.90;1.20;;;16.50;67.50;;;;;;5006756;28;20571;-44
2022/05/25 07:01:16;;;;;;;0.93;0.93;;;16.70;66.20;;;;;;5013067;28;20459;-45
2022/05/25 07:03:43;;;;;;;1.80;1.20;;;16.80;66.10;;;;;;4987031;28;20558;-45
2022/05/25 07:06:12;;;;;;;0.87;0.87;;;16.90;65.50;;;;;;4988827;28;20476;-45
2022/05/25 07:08:39;;;;;;;1.50;1.20;;;17.00;64.50;;;;;;5013844;28;20471;-42
2022/05/25 07:11:09;;;;;;;3.70;1.33;;;17.10;63.90;;;;;;5008167;28;20452;-42
2022/05/25 07:13:36;;;;;;;1.67;0.80;;;17.20;64.50;;;;;;5005693;28;20464;-42
2022/05/25 07:16:06;;;;;;;2.90;0.80;;;17.40;64.70;;;;;;5003617;28;20464;-43
2022/05/25 07:18:35;;;;;;;0.83;0.83;;;17.50;64.30;;;;;;5009762;28;20558;-44
2022/05/25 07:21:06;;;;;;;2.40;0.90;;;17.70;62.80;;;;;;5009089;28;20527;-44
2022/05/25 07:23:38;;;;;;;1.43;0.83;;;17.80;61.50;;;;;;5005960;28;20460;-44
2022/05/25 07:26:06;;;;;;;4.20;1.00;;;18.00;60.60;;;;;;5004410;28;20468;-44
2022/05/25 07:28:35;;;;;;;2.63;1.00;;;18.10;59.60;;;;;;4980176;28;20464;-44
2022/05/25 07:31:21;;;;;;;0.80;0.80;;;18.20;60.10;;;;;;4998415;28;20476;-44
2022/05/25 07:33:53;;;;;;;2.30;1.50;;;18.30;60.50;;;;;;5004612;28;20810;-43
2022/05/25 07:36:20;;;;;;;0.80;0.73;;;18.40;59.60;;;;;;4999067;28;20472;-43
2022/05/25 07:38:50;;;;;;;3.83;1.10;;;18.50;58.40;;;;;;4998880;28;20491;-43
2022/05/25 07:41:19;;;;;;;1.27;0.70;;;18.60;59.30;;;;;;4980992;28;20457;-43
2022/05/25 07:43:47;;;;;;;4.80;0.97;;;18.70;58.70;;;;;;5003758;28;20569;-43
2022/05/25 07:46:14;;;;;;;1.43;0.90;;;18.80;58.70;;;;;;4999272;28;20464;-43
2022/05/25 07:48:40;;;;;;;1.93;0.60;;;19.00;58.00;;;;;;5001625;28;20470;-43
2022/05/25 07:51:08;;;;;;;1.07;0.97;;;19.20;56.10;;;;;;5002807;28;20523;-42
2022/05/25 07:56:20;;;;;;;1.00;0.53;;;19.40;55.20;;;;;;5006616;28;21230;-44
2022/05/25 07:58:47;;;;;;;1.90;1.00;;;19.60;55.10;;;;;;4986266;28;20558;-44
2022/05/25 08:01:18;;;;;;;1.10;0.60;;;19.60;54.80;;;;;;4986348;28;20467;-44
2022/05/25 08:06:32;;;;;;;0.93;0.60;;;19.80;54.90;;;;;;5003581;28;20464;-44
2022/05/25 08:09:00;;;;;;;1.23;0.80;;;19.90;54.60;;;;;;4982407;28;20472;-43
2022/05/25 08:11:29;;;;;;;2.33;1.10;;;20.00;55.00;;;;;;4997940;28;20464;-43
2022/05/25 08:13:56;;;;;;;2.77;0.77;;;20.10;54.30;;;;;;5008064;28;20461;-44
2022/05/25 08:16:23;;;;;;;0.93;0.60;;;20.10;53.60;;;;;;5007261;28;20467;-43
2022/05/25 08:18:50;;;;;;;2.23;0.90;;;20.20;54.00;;;;;;5002027;28;20554;-43
2022/05/25 08:21:16;;;;;;;1.00;0.80;;;20.30;53.70;;;;;;5002230;28;20541;-43
2022/05/25 08:24:03;;;;;;;0.90;0.60;;;20.30;53.30;;;;;;4999456;28;20452;-43
2022/05/25 08:26:30;;;;;;;0.60;0.53;;;20.40;53.10;;;;;;4998395;28;20460;-43
2022/05/25 08:28:57;;;;;;;1.17;0.90;;;20.50;52.10;;;;;;4997639;28;20487;-43
2022/05/25 08:31:24;;;;;;;1.67;0.70;;;20.60;52.60;;;;;;4986376;28;20500;-43
2022/05/25 08:33:51;;;;;;;0.53;0.50;;;20.70;52.80;;;;;;4979420;28;20504;-43
2022/05/25 08:36:17;;;;;;;0.70;0.50;;;20.70;51.80;;;;;;5000368;28;20580;-46
2022/05/25 08:38:44;;;;;;;0.87;0.67;;;20.70;51.60;;;;;;5002116;28;20956;-46
2022/05/25 08:41:12;;;;;;;1.70;0.70;;;20.90;51.80;;;;;;5001498;28;20886;-46
2022/05/25 08:43:41;;;;;;;5.10;0.80;;;21.00;49.30;;;;;;4988935;28;20460;-46
2022/05/25 08:46:14;;;;;;;1.57;0.60;;;21.10;49.20;;;;;;4999415;28;20587;-47
2022/05/25 08:48:42;;;;;;;1.20;0.63;;;21.10;49.50;;;;;;4994472;28;20541;-46
2022/05/25 08:51:31;;;;;;;0.73;0.63;;;21.20;50.30;;;;;;4991008;28;20464;-47
2022/05/25 08:54:00;;;;;;;2.60;0.70;;;21.40;50.00;;;;;;4995691;28;20516;-47
2022/05/25 08:56:49;;;;;;;1.27;0.63;;;21.40;49.50;;;;;;4991413;28;20917;-46
2022/05/25 08:59:21;;;;;;;1.37;0.87;;;21.40;49.90;;;;;;5002223;28;21084;-46
2022/05/25 09:02:02;;;;;;;2.00;0.80;;;21.50;50.00;;;;;;4984419;28;20525;-46
2022/05/25 09:04:38;;;;;;;1.20;0.57;;;21.70;49.00;;;;;;5000697;28;20459;-46
2022/05/25 09:07:20;;;;;;;3.23;0.93;;;21.70;49.20;;;;;;5005829;28;20467;-46
2022/05/25 09:09:51;;;;;;;1.30;0.60;;;21.80;49.10;;;;;;4999747;28;20493;-46
2022/05/25 09:12:40;;;;;;;0.90;0.70;;;21.70;48.30;;;;;;4983664;28;20912;-46
2022/05/25 09:15:17;;;;;;;0.97;0.60;;;21.60;48.50;;;;;;4981706;28;20680;-46
2022/05/25 09:18:00;;;;;;;2.00;0.67;;;21.40;49.40;;;;;;5005916;28;20614;-46
2022/05/25 09:20:38;;;;;;;1.47;0.90;;;21.30;49.30;;;;;;5003661;28;20991;-47
2022/05/25 09:23:05;;;;;;;0.80;0.67;;;21.20;49.40;;;;;;5006530;28;20467;-47
2022/05/25 09:25:34;;;;;;;0.83;0.67;;;21.00;50.70;;;;;;5008464;28;20472;-47
2022/05/25 09:28:07;;;;;;;1.23;0.73;;;20.80;51.40;;;;;;5009527;28;20472;-43
2022/05/25 09:30:38;;;;;;;0.90;0.80;;;20.60;52.30;;;;;;5008672;28;20518;-44
2022/05/25 09:33:47;;;;;;;2.10;0.70;;;20.40;53.20;;;;;;5011302;28;20514;-43
2022/05/25 09:36:20;;;;;;;1.47;0.70;;;20.30;53.20;;;;;;5004187;28;20460;-44
2022/05/25 09:39:03;;;;;;;0.87;0.60;;;20.30;53.50;;;;;;5009494;28;20570;-42
2022/05/25 09:41:33;;;;;;;2.00;0.90;;;20.60;51.90;;;;;;4988590;28;20543;-47
2022/05/25 09:44:03;;;;;;;0.70;0.60;;;20.90;51.00;;;;;;4990986;28;20467;-47
2022/05/25 09:46:37;;;;;;;1.27;0.70;;;21.20;51.20;;;;;;5009924;28;20464;-42
2022/05/25 09:49:07;;;;;;;0.63;0.63;;;21.50;50.40;;;;;;5007101;28;20463;-42
2022/05/25 09:51:35;;;;;;;1.77;0.60;;;21.90;49.10;;;;;;4990685;28;20498;-42
2022/05/25 09:54:14;;;;;;;1.40;0.50;;;22.20;48.10;;;;;;4987228;28;20557;-42
2022/05/25 09:56:52;;;;;;;5.10;0.70;;;22.20;47.30;;;;;;5007873;28;20470;-42
2022/05/25 09:59:29;;;;;;;1.20;0.63;;;21.90;47.20;;;;;;5011920;28;20505;-42
2022/05/25 10:01:56;;;;;;;0.60;0.50;;;21.90;47.90;;;;;;4988733;28;21816;-42
2022/05/25 10:04:51;;;;;;;0.70;0.60;;;22.00;47.00;;;;;;5001345;28;20539;-42
2022/05/25 10:07:31;;;;;;;0.73;0.63;;;21.80;46.40;;;;;;5009697;28;20503;-42
2022/05/25 10:10:07;;;;;;;0.40;0.40;;;21.50;47.70;;;;;;5006800;28;20498;-42
2022/05/25 10:12:40;;;;;;;1.27;0.90;;;21.20;47.50;;;;;;5003121;28;20957;-42
2022/05/25 10:15:33;;;;;;;1.10;0.60;;;21.20;48.20;;;;;;4970153;28;20460;-42
2022/05/25 10:18:00;;;;;;;2.73;0.70;;;21.30;48.40;;;;;;5008815;28;22457;-41
2022/05/25 10:20:46;;;;;;;0.60;0.60;;;21.50;47.90;;;;;;4990205;28;20809;-41
2022/05/25 10:23:24;;;;;;;3.07;0.60;;;21.80;47.50;;;;;;5008119;28;20694;-41
2022/05/25 10:26:07;;;;;;;0.97;0.40;;;22.10;46.70;;;;;;5007297;28;20470;-41
2022/05/25 10:28:43;;;;;;;0.70;0.40;;;22.40;45.30;;;;;;4984719;28;20582;-41
2022/05/25 10:37:06;;;;;;;1.80;1.70;;;22.60;42.80;;;;;;5014036;28;20479;-41
2022/05/25 10:39:35;;;;;;;2.30;0.60;;;22.50;44.60;;;;;;5006887;28;20487;-41
2022/05/25 10:42:11;;;;;;;0.90;0.47;;;22.50;45.00;;;;;;5011528;28;20494;-42
2022/05/25 10:44:43;;;;;;;0.57;0.40;;;22.40;45.10;;;;;;5008407;28;20539;-41
2022/05/25 10:47:44;;;;;;;1.47;0.60;;;22.30;44.40;;;;;;5011931;28;20503;-41
2022/05/25 10:50:21;;;;;;;1.23;0.70;;;22.10;45.40;;;;;;4975466;28;20496;-41
2022/05/25 10:53:18;;;;;;;1.67;0.43;;;21.90;44.60;;;;;;4986811;28;20534;-41
2022/05/25 10:55:52;;;;;;;0.70;0.40;;;21.80;45.30;;;;;;5010502;28;20575;-41
2022/05/25 10:58:48;;;;;;;0.70;0.50;;;21.80;43.00;;;;;;5010252;28;21175;-41
2022/05/25 11:01:26;;;;;;;4.00;1.20;;;21.70;41.50;;;;;;4992583;28;20448;-44
2022/05/25 11:04:23;;;;;;;1.73;0.50;;;21.60;42.30;;;;;;5009158;28;20492;-44
2022/05/25 11:06:54;;;;;;;0.50;0.40;;;21.40;43.30;;;;;;4967653;28;20468;-44
2022/05/25 11:09:43;;;;;;;0.80;0.50;;;21.30;43.90;;;;;;5008316;28;20455;-43
2022/05/25 11:12:29;;;;;;;0.60;0.53;;;21.30;45.00;;;;;;4993184;28;20551;-43
2022/05/25 11:15:25;;;;;;;2.50;0.53;;;21.20;45.30;;;;;;5009413;28;20470;-44
2022/05/25 11:18:07;;;;;;;0.50;0.33;;;21.20;44.90;;;;;;5006837;28;20456;-44
2022/05/25 11:20:56;;;;;;;1.33;0.30;;;21.20;44.10;;;;;;5008177;28;20465;-44
2022/05/25 11:23:48;;;;;;;1.33;0.50;;;21.30;41.70;;;;;;4993721;28;20846;-43
2022/05/25 11:26:18;;;;;;;2.57;0.43;;;21.20;43.10;;;;;;5009569;28;20463;-44
2022/05/25 11:29:43;;;;;;;0.97;0.53;;;21.20;43.20;;;;;;5009288;28;20471;-45
2022/05/25 11:32:40;;;;;;;0.83;0.53;;;21.20;44.00;;;;;;5010545;28;20579;-45
2022/05/25 11:35:14;;;;;;;1.13;0.47;;;21.20;44.00;;;;;;5007290;28;20472;-45
2022/05/25 11:38:02;;;;;;;0.87;0.30;;;21.20;44.90;;;;;;5011951;28;20528;-44
2022/05/25 11:40:50;;;;;;;1.23;0.40;;;21.10;45.10;;;;;;5011858;28;20463;-44
2022/05/25 11:43:27;;;;;;;2.77;0.50;;;21.10;43.90;;;;;;5012461;28;20462;-44
2022/05/25 11:46:20;;;;;;;0.70;0.43;;;21.10;43.80;;;;;;5010821;28;20456;-44
2022/05/25 11:49:32;;;;;;;0.80;0.50;;;21.10;44.50;;;;;;5012040;28;20439;-44
2022/05/25 11:52:21;;;;;;;1.00;0.37;;;21.10;46.00;;;;;;5009253;28;20444;-44
2022/05/25 11:54:53;;;;;;;0.73;0.57;;;21.00;45.50;;;;;;5008200;28;20466;-44
2022/05/25 11:57:50;;;;;;;0.83;0.40;;;21.00;46.00;;;;;;5008815;28;20798;-44
2022/05/25 12:00:32;;;;;;;1.17;0.60;;;21.00;45.20;;;;;;5011950;28;20489;-44
2022/05/25 12:03:27;;;;;;;1.00;0.57;;;21.00;44.80;;;;;;4991118;28;20459;-45
2022/05/25 12:06:11;;;;;;;1.47;0.33;;;21.00;44.90;;;;;;5006413;28;20936;-45
2022/05/25 12:09:03;;;;;;;1.70;0.40;;;21.10;43.90;;;;;;5008636;28;20455;-45
2022/05/25 12:11:39;;;;;;;0.90;0.67;;;21.10;45.00;;;;;;5008714;28;20451;-44
2022/05/25 12:14:17;;;;;;;1.43;0.80;;;21.20;45.70;;;;;;5012604;28;20456;-45
2022/05/25 12:16:46;;;;;;;0.87;0.40;;;21.30;44.90;;;;;;5009539;28;20464;-45
2022/05/25 12:19:24;;;;;;;0.90;0.30;;;21.40;44.70;;;;;;4975568;28;20494;-45
2022/05/25 12:21:56;;;;;;;1.17;0.50;;;21.50;44.10;;;;;;5006809;28;20463;-44
2022/05/25 12:24:39;;;;;;;2.00;0.50;;;21.60;44.30;;;;;;5010691;28;20448;-44
2022/05/25 12:27:11;;;;;;;1.47;0.40;;;21.60;43.00;;;;;;5009903;28;21036;-44
2022/05/25 12:29:43;;;;;;;3.33;0.60;;;21.70;44.30;;;;;;5008573;28;20481;-44
2022/05/25 12:32:11;;;;;;;0.87;0.57;;;21.70;43.70;;;;;;5010799;28;21009;-44
2022/05/25 12:34:46;;;;;;;2.87;0.50;;;21.70;43.60;;;;;;4989032;28;20471;-43
2022/05/25 12:37:22;;;;;;;1.43;0.50;;;21.80;43.20;;;;;;4994991;28;20463;-43
2022/05/25 12:39:48;;;;;;;1.00;0.57;;;21.90;42.80;;;;;;4991838;28;21012;-44
2022/05/25 12:42:25;;;;;;;2.83;0.37;;;21.80;42.30;;;;;;4999622;28;20443;-43
2022/05/25 12:51:06;;;;;;;1.67;0.50;;;21.80;43.60;;;;;;5011454;28;20960;-44
2022/05/25 12:53:34;;;;;;;0.90;0.50;;;21.80;43.50;;;;;;5012780;28;20673;-44
2022/05/25 12:56:15;;;;;;;0.87;0.40;;;21.80;43.80;;;;;;5013116;28;20511;-46
2022/05/25 12:58:47;;;;;;;0.70;0.40;;;21.80;43.30;;;;;;5012422;28;20591;-42
2022/05/25 13:01:14;;;;;;;1.33;0.57;;;21.70;42.50;;;;;;5011706;28;20452;-42
2022/05/25 13:04:01;;;;;;;1.10;0.30;;;21.70;42.60;;;;;;4991944;28;20546;-42
2022/05/25 13:06:35;;;;;;;0.40;0.30;;;21.60;43.40;;;;;;4993859;28;20460;-42
2022/05/25 13:09:28;;;;;;;1.03;0.40;;;21.60;44.10;;;;;;5011365;28;21054;-42
2022/05/25 13:11:55;;;;;;;0.90;0.50;;;21.70;45.10;;;;;;5012586;28;20979;-42
2022/05/25 13:14:24;;;;;;;0.90;0.40;;;21.70;43.90;;;;;;5008977;28;20578;-42
2022/05/25 13:16:57;;;;;;;0.70;0.30;;;21.80;43.70;;;;;;5010193;28;20440;-41
2022/05/25 13:19:33;;;;;;;1.53;0.40;;;21.90;42.70;;;;;;5012444;28;20852;-41
2022/05/25 13:22:02;;;;;;;2.10;0.50;;;21.90;42.30;;;;;;5011856;28;20450;-42
2022/05/25 13:24:35;;;;;;;0.73;0.50;;;21.80;42.80;;;;;;5011015;28;20458;-42
2022/05/25 13:27:15;;;;;;;0.90;0.43;;;21.80;43.90;;;;;;5013152;28;20450;-42
2022/05/25 13:29:54;;;;;;;0.53;0.40;;;21.80;45.10;;;;;;5010923;28;20582;-42
2022/05/25 13:32:33;;;;;;;0.60;0.33;;;21.80;44.70;;;;;;5011325;28;20478;-42
2022/05/25 13:35:23;;;;;;;1.17;0.50;;;21.80;43.30;;;;;;5012949;28;20523;-42
2022/05/25 13:37:51;;;;;;;1.93;0.53;;;21.70;44.10;;;;;;4967220;28;20642;-42
2022/05/25 13:40:22;;;;;;;3.03;0.57;;;21.70;44.10;;;;;;4994628;28;20493;-42
2022/05/25 13:42:49;;;;;;;2.10;0.97;;;21.60;43.90;;;;;;5010175;28;20550;-42
2022/05/25 13:45:25;;;;;;;1.30;0.60;;;21.60;43.50;;;;;;5013364;28;20454;-42
2022/05/25 13:47:54;;;;;;;0.97;0.40;;;21.50;44.00;;;;;;4991243;28;20469;-41
2022/05/25 13:50:41;;;;;;;1.77;0.60;;;21.50;44.40;;;;;;5012704;28;20957;-42